Hauptseite
METAR-TAF:

METAR-TAF

Flughäfen :

Florenz, Italien

Flughafen Florenz

Breite: 43-48N, Länge: 011-12E, Höhe: 40 m

Beobachtung

Neuester Wetterbericht von vor 23 Minuten, um 22:50 UTC
Wind 3 kt aus Ost
Temperatur 15°C
Luftfeuchtigkeit 67%
Luftdruck 1018 hPa
Sichtweite 10 km oder mehr
keine Wolken unter 1500 m und keine Kumulonimbus oder Gewitterwolken

METAR: LIRQ 212250Z 10003KT CAVOK 15/09 Q1018

Zeit: 01:13 (23:13 UTC)

Prognose

Neuester Wetterbericht von vor 6 Stunden und 13 Minuten, um 17:00 UTC
Gültige Prognose vom 21 um 18 UTC bis 22 um 18 UTC
Wind 6 kt aus Nordost
Sichtweite 10 km oder mehr
Aufgelockert bewölkt in der Höhe von 3000 ft
Übergehend zu
vom 22 um 09 UTC bis 21 um 12 UTC
Wind 10 kt aus West/Südwest

TAF: LIRQ 211700Z 2118/2218 04006KT 9999 SCT030 BECMG 2209/2112 24010KT

Wetterbeobachtungen und Prognosen von mehr als 4000 Flughäfen (METAR und TAF Bericht).

Die verfügbaren Stationen werden durch gelbe und rote Markierungen auf der Karte dargestellt.

Führen Sie die Maus auf sie, um den Namen der Station zu sehen.

Darauf klicken, um die Beobachtung von Wetterbeobachtungen und Prognosen zu sehen.

Um die Karte zu ändern : klicken Sie auf den grünen Tasten mit einem schwarzen Kreuz Zum Vergrößern, auf den grünen Button mit einem Gedankenstrich zu verkleinern, oder auf die grünen Pfeile für benachbarte Karten.


METAR-TAF: